createdAt,value
2023-02-13T00:01:28.894Z,34.77
2023-02-13T00:03:57.236Z,35.90
2023-02-13T00:06:25.689Z,36.08
2023-02-13T00:08:54.225Z,35.88
2023-02-13T00:11:22.709Z,35.95
2023-02-13T00:13:50.945Z,36.22
2023-02-13T00:16:20.630Z,37.78
2023-02-13T00:18:48.951Z,35.57
2023-02-13T00:21:17.342Z,36.30
2023-02-13T00:23:45.617Z,36.78
2023-02-13T00:26:17.020Z,37.35
2023-02-13T00:28:46.861Z,36.25
2023-02-13T00:31:17.782Z,37.10
2023-02-13T00:33:47.694Z,37.30
2023-02-13T00:36:19.260Z,35.78
2023-02-13T00:38:48.738Z,35.88
2023-02-13T00:41:18.184Z,36.80
2023-02-13T00:43:47.397Z,37.15
2023-02-13T00:46:16.237Z,35.63
2023-02-13T00:48:45.348Z,37.28
2023-02-13T00:51:15.250Z,37.00
2023-02-13T00:53:43.519Z,36.85
2023-02-13T00:56:11.899Z,37.20
2023-02-13T00:58:40.306Z,35.97
2023-02-13T01:01:08.684Z,36.00
2023-02-13T01:03:37.005Z,35.95
2023-02-13T01:06:06.438Z,36.83
2023-02-13T01:08:36.783Z,36.95
2023-02-13T01:11:05.474Z,37.42
2023-02-13T01:13:34.025Z,37.05
2023-02-13T01:16:02.618Z,36.53
2023-02-13T01:18:31.226Z,37.33
2023-02-13T01:21:02.680Z,37.78
2023-02-13T01:23:38.486Z,37.42
2023-02-13T01:26:08.966Z,35.72
2023-02-13T01:28:37.288Z,38.03
2023-02-13T01:31:06.710Z,37.00
2023-02-13T01:33:36.077Z,36.15
2023-02-13T01:36:09.074Z,37.08
2023-02-13T01:38:40.647Z,38.05
2023-02-13T01:41:10.513Z,38.75
2023-02-13T01:43:52.598Z,36.58
2023-02-13T01:46:29.135Z,37.00
2023-02-13T01:49:04.098Z,38.33
2023-02-13T01:51:35.296Z,36.92
2023-02-13T01:54:11.753Z,37.28
2023-02-13T01:56:44.611Z,38.13
2023-02-13T01:59:19.093Z,39.63
2023-02-13T02:01:48.922Z,38.50
2023-02-13T02:04:23.954Z,38.65
2023-02-13T02:06:57.302Z,37.92
2023-02-13T02:09:34.979Z,38.33
2023-02-13T02:12:09.757Z,37.75
2023-02-13T02:14:42.017Z,37.33
2023-02-13T02:17:12.807Z,38.75
2023-02-13T02:19:46.242Z,37.67
2023-02-13T02:23:15.882Z,37.10
2023-02-13T02:26:34.423Z,37.92
2023-02-13T02:29:45.544Z,37.55
2023-02-13T02:32:45.579Z,36.63
2023-02-13T02:35:28.514Z,37.50
2023-02-13T02:38:26.629Z,38.25
2023-02-13T02:41:08.279Z,37.70
2023-02-13T02:43:56.870Z,36.60
2023-02-13T02:46:32.827Z,36.22
2023-02-13T02:49:25.792Z,37.53
2023-02-13T02:52:05.203Z,37.22
2023-02-13T02:54:57.843Z,38.28
2023-02-13T02:57:55.743Z,35.88
2023-02-13T03:00:44.772Z,35.80
2023-02-13T03:03:37.079Z,37.63
2023-02-13T03:06:16.091Z,37.47
2023-02-13T03:09:09.630Z,36.35
2023-02-13T03:11:56.456Z,38.85
2023-02-13T03:14:28.457Z,37.90
2023-02-13T03:17:16.865Z,37.53
2023-02-13T03:20:16.918Z,37.83
2023-02-13T03:23:04.032Z,35.75
2023-02-13T03:25:40.930Z,37.08
2023-02-13T03:28:36.444Z,37.65
2023-02-13T03:31:14.507Z,36.28
2023-02-13T03:33:57.759Z,35.80
2023-02-13T03:36:53.963Z,36.92
2023-02-13T03:39:31.224Z,37.13
2023-02-13T03:42:05.301Z,36.28
2023-02-13T03:44:39.143Z,37.78
2023-02-13T03:47:10.242Z,37.92
2023-02-13T03:50:02.001Z,36.63
2023-02-13T03:52:35.219Z,37.35
2023-02-13T03:55:27.971Z,36.35
2023-02-13T03:58:18.761Z,37.83
2023-02-13T04:05:57.530Z,35.30
2023-02-13T04:08:26.017Z,36.40
2023-02-13T04:11:02.419Z,37.63
2023-02-13T04:13:36.234Z,38.28
2023-02-13T04:16:10.948Z,38.13
2023-02-13T04:18:41.043Z,35.95
2023-02-13T04:21:10.020Z,36.67
2023-02-13T04:23:38.457Z,36.88
2023-02-13T04:26:16.197Z,36.00
2023-02-13T04:28:44.842Z,36.80
2023-02-13T04:31:13.623Z,36.47
2023-02-13T04:33:42.254Z,37.13
2023-02-13T04:36:10.872Z,37.13
2023-02-13T04:38:39.188Z,36.47
2023-02-13T04:41:08.916Z,35.97
2023-02-13T04:43:37.379Z,37.75
2023-02-13T04:46:06.257Z,37.45
2023-02-13T04:48:34.703Z,36.50
2023-02-13T04:51:03.322Z,35.78
2023-02-13T04:53:31.610Z,37.75
2023-02-13T04:55:59.918Z,35.72
2023-02-13T04:58:29.661Z,38.08
2023-02-13T05:00:58.293Z,35.83
2023-02-13T05:03:26.959Z,35.60
2023-02-13T05:05:55.266Z,36.90
2023-02-13T05:08:23.672Z,36.33
2023-02-13T05:10:51.940Z,35.38
2023-02-13T05:13:21.721Z,35.63
2023-02-13T05:15:52.588Z,35.50
2023-02-13T05:18:21.139Z,35.42
2023-02-13T05:21:09.668Z,36.92
2023-02-13T05:23:37.424Z,37.15
2023-02-13T05:26:06.031Z,36.67
2023-02-13T05:28:51.930Z,35.30
2023-02-13T05:31:21.817Z,35.13
2023-02-13T05:33:50.247Z,37.05
2023-02-13T05:36:18.586Z,37.30
2023-02-13T05:38:46.901Z,36.60
2023-02-13T05:41:15.299Z,34.65
2023-02-13T05:43:43.781Z,37.42
2023-02-13T05:46:12.303Z,36.42
2023-02-13T05:48:42.054Z,34.85
2023-02-13T05:51:10.399Z,34.33
2023-02-13T05:53:38.805Z,36.67
2023-02-13T05:56:08.193Z,34.78
2023-02-13T05:58:37.632Z,35.97
2023-02-13T06:01:06.187Z,35.83
2023-02-13T06:03:35.210Z,34.08
2023-02-13T06:06:05.309Z,34.50
2023-02-13T06:08:33.690Z,34.53
2023-02-13T06:11:02.325Z,35.45
2023-02-13T06:13:31.039Z,35.28
2023-02-13T06:15:59.596Z,33.90
2023-02-13T06:18:28.174Z,33.83
2023-02-13T06:20:56.776Z,35.88
2023-02-13T06:23:26.798Z,34.60
2023-02-13T06:25:55.143Z,34.63
2023-02-13T06:28:23.728Z,35.05
2023-02-13T06:30:52.180Z,36.50
2023-02-13T06:33:20.614Z,36.53
2023-02-13T06:35:48.960Z,35.58
2023-02-13T06:38:19.071Z,36.08
2023-02-13T06:40:49.780Z,35.65
2023-02-13T06:43:19.048Z,37.25
2023-02-13T06:45:47.962Z,36.83
2023-02-13T06:48:16.440Z,35.47
2023-02-13T06:50:44.699Z,35.75
2023-02-13T06:53:12.999Z,34.95
2023-02-13T06:55:41.482Z,35.25
2023-02-13T06:58:11.180Z,36.20
2023-02-13T07:00:39.506Z,35.63
2023-02-13T07:03:09.952Z,35.38
2023-02-13T07:05:41.809Z,34.58
2023-02-13T07:08:10.735Z,34.42
2023-02-13T07:10:39.648Z,35.47
2023-02-13T07:13:10.392Z,34.78
2023-02-13T07:15:39.331Z,34.47
2023-02-13T07:18:09.417Z,35.42
2023-02-13T07:20:38.038Z,36.03
2023-02-13T07:23:07.967Z,34.35
2023-02-13T07:25:36.687Z,35.58
2023-02-13T07:28:06.712Z,34.67
2023-02-13T07:30:36.920Z,33.63
2023-02-13T07:33:06.403Z,37.20
2023-02-13T07:35:36.188Z,36.53
2023-02-13T07:38:04.950Z,35.03
2023-02-13T07:40:33.305Z,34.75
2023-02-13T07:43:02.917Z,33.33
2023-02-13T07:45:31.337Z,34.63
2023-02-13T07:48:01.122Z,37.08
2023-02-13T07:50:29.911Z,36.97
2023-02-13T07:52:59.861Z,36.70
2023-02-13T07:55:28.771Z,35.95
2023-02-13T07:57:57.651Z,36.60
2023-02-13T08:00:26.379Z,37.10
2023-02-13T08:02:54.823Z,37.08
2023-02-13T08:05:24.524Z,36.92
2023-02-13T08:07:53.885Z,36.97
2023-02-13T08:10:40.013Z,38.35
2023-02-13T08:13:09.976Z,37.60
2023-02-13T08:15:38.441Z,37.00
2023-02-13T08:18:06.876Z,38.67
2023-02-13T08:20:36.650Z,38.58
2023-02-13T08:23:05.671Z,38.20
2023-02-13T08:25:34.211Z,38.75
2023-02-13T08:28:03.043Z,43.53
2023-02-13T08:30:31.862Z,41.92
2023-02-13T08:33:00.157Z,41.53
2023-02-13T08:35:29.872Z,39.38
2023-02-13T08:38:03.908Z,40.43
2023-02-13T08:40:32.672Z,38.85
2023-02-13T08:43:02.465Z,39.72
2023-02-13T08:45:31.596Z,40.08
2023-02-13T08:48:01.276Z,41.03
2023-02-13T08:50:30.077Z,39.97
2023-02-13T08:53:01.013Z,40.17
2023-02-13T08:55:30.983Z,43.13
2023-02-13T08:58:02.474Z,41.00
2023-02-13T09:00:31.554Z,42.75
2023-02-13T09:03:03.266Z,41.85
2023-02-13T09:05:32.653Z,41.83
2023-02-13T09:08:03.846Z,45.78
2023-02-13T09:10:33.508Z,43.25
2023-02-13T09:13:02.274Z,45.78
2023-02-13T09:15:31.049Z,47.35
2023-02-13T09:17:59.529Z,47.70
2023-02-13T09:20:28.280Z,45.45
2023-02-13T09:22:57.880Z,42.00
2023-02-13T09:25:27.760Z,42.22
2023-02-13T09:27:56.248Z,42.72
2023-02-13T09:30:24.821Z,40.83
2023-02-13T09:32:54.446Z,40.13
2023-02-13T09:35:24.057Z,40.67
2023-02-13T09:37:52.426Z,44.00
2023-02-13T09:40:29.655Z,41.55
2023-02-13T09:43:08.996Z,43.10
2023-02-13T09:45:37.921Z,42.03
2023-02-13T09:48:09.278Z,41.95
2023-02-13T09:50:39.390Z,42.17
2023-02-13T09:53:07.777Z,43.92
2023-02-13T09:55:48.222Z,41.80
2023-02-13T09:58:26.397Z,41.90
2023-02-13T10:00:59.346Z,43.35
2023-02-13T10:03:32.700Z,42.80
2023-02-13T10:06:14.943Z,40.80
2023-02-13T10:09:02.326Z,41.78
2023-02-13T10:12:13.700Z,42.35
2023-02-13T10:14:50.451Z,42.05
2023-02-13T10:17:25.616Z,41.47
2023-02-13T10:19:58.723Z,42.85
2023-02-13T10:22:33.696Z,41.88
2023-02-13T10:25:07.660Z,43.33
2023-02-13T10:27:42.178Z,44.25
2023-02-13T10:30:20.327Z,42.95
2023-02-13T10:33:11.251Z,43.08
2023-02-13T10:35:40.326Z,44.63
2023-02-13T10:38:18.365Z,43.03
2023-02-13T10:41:06.658Z,45.35
2023-02-13T10:43:49.280Z,43.35
2023-02-13T10:46:26.885Z,42.78
2023-02-13T10:49:19.155Z,43.05
2023-02-13T10:51:56.700Z,44.90
2023-02-13T10:54:45.174Z,45.60
2023-02-13T10:57:23.366Z,45.35
2023-02-13T11:00:09.226Z,44.97
2023-02-13T11:02:38.744Z,45.33
2023-02-13T11:05:19.580Z,47.03
2023-02-13T11:10:19.592Z,46.83
2023-02-13T11:12:48.984Z,45.40
2023-02-13T11:15:28.295Z,45.95
2023-02-13T11:17:59.757Z,47.38
2023-02-13T11:20:34.881Z,48.45
2023-02-13T11:23:36.002Z,45.33
2023-02-13T11:26:09.206Z,47.38
2023-02-13T11:28:48.526Z,47.22
2023-02-13T11:31:29.019Z,48.08
2023-02-13T11:33:59.103Z,45.22
2023-02-13T11:36:32.808Z,45.63
2023-02-13T11:39:05.070Z,45.10
2023-02-13T11:41:41.410Z,44.08
2023-02-13T11:44:24.227Z,41.85
2023-02-13T11:46:55.729Z,39.72
2023-02-13T11:49:25.921Z,40.60
2023-02-13T11:51:57.068Z,41.17
2023-02-13T11:54:31.770Z,39.40
2023-02-13T11:57:05.197Z,36.67
2023-02-13T11:59:42.675Z,35.50
2023-02-13T12:02:21.200Z,32.85
2023-02-13T12:04:51.715Z,38.78
2023-02-13T12:07:27.035Z,37.20
2023-02-13T12:10:02.883Z,38.33
2023-02-13T12:12:38.915Z,37.33
2023-02-13T12:15:19.659Z,34.65
2023-02-13T12:18:06.715Z,34.38
2023-02-13T12:20:45.360Z,35.90
2023-02-13T12:23:30.461Z,34.50
2023-02-13T12:26:20.624Z,35.88
2023-02-13T12:29:13.930Z,32.95
2023-02-13T12:32:08.581Z,32.78
2023-02-13T12:35:15.135Z,33.78
2023-02-13T12:37:59.459Z,33.78
2023-02-13T12:40:46.932Z,31.60
2023-02-13T12:44:06.443Z,29.77
2023-02-13T12:46:42.752Z,31.10
2023-02-13T12:49:42.906Z,28.95
2023-02-13T12:52:37.979Z,28.55
2023-02-13T12:55:50.432Z,28.58
2023-02-13T12:58:57.282Z,29.33
2023-02-13T13:02:12.713Z,30.52
2023-02-13T13:04:56.472Z,27.90
2023-02-13T13:07:57.318Z,28.95
2023-02-13T13:13:26.246Z,28.85
2023-02-13T13:16:06.200Z,29.70
2023-02-13T13:18:48.562Z,27.35
2023-02-13T13:21:34.713Z,28.50
2023-02-13T13:24:15.209Z,25.65
2023-02-13T13:26:49.613Z,26.17
2023-02-13T13:29:23.810Z,24.25
2023-02-13T13:31:57.249Z,25.10
2023-02-13T13:34:28.017Z,23.13
2023-02-13T13:39:52.534Z,24.42
2023-02-13T13:42:28.364Z,23.20
2023-02-13T13:45:18.426Z,23.48
2023-02-13T13:48:07.293Z,23.95
2023-02-13T13:50:42.102Z,22.67
2023-02-13T13:53:14.762Z,24.02
2023-02-13T13:56:09.412Z,23.40
2023-02-13T13:58:43.817Z,23.20
2023-02-13T14:01:29.225Z,23.98
2023-02-13T14:03:59.941Z,24.35
2023-02-13T14:06:30.543Z,23.13
2023-02-13T14:09:09.720Z,22.17
2023-02-13T14:11:47.224Z,23.30
2023-02-13T14:14:49.440Z,23.75
2023-02-13T14:18:01.334Z,22.88
2023-02-13T14:20:41.398Z,24.25
2023-02-13T14:23:53.208Z,23.77
2023-02-13T14:26:39.494Z,24.05
2023-02-13T14:29:28.601Z,24.35
2023-02-13T14:32:08.537Z,25.02
2023-02-13T14:34:39.373Z,24.33
2023-02-13T14:40:33.552Z,24.00
2023-02-13T14:43:30.899Z,23.80
2023-02-13T14:46:10.232Z,26.20
2023-02-13T14:48:46.210Z,25.58
2023-02-13T14:51:28.809Z,26.77
2023-02-13T14:54:05.071Z,25.48
2023-02-13T14:56:34.446Z,26.52
2023-02-13T14:59:12.686Z,24.75
2023-02-13T15:01:51.856Z,24.48
2023-02-13T15:04:29.264Z,23.27
2023-02-13T15:07:02.310Z,23.02
2023-02-13T15:09:38.800Z,22.73
2023-02-13T15:12:27.525Z,22.38
2023-02-13T15:14:55.961Z,20.98
2023-02-13T15:17:30.167Z,22.90
2023-02-13T15:20:06.334Z,24.08
2023-02-13T15:22:39.154Z,22.63
2023-02-13T15:25:09.910Z,23.83
2023-02-13T15:30:23.830Z,24.23
2023-02-13T15:33:00.036Z,24.10
2023-02-13T15:35:31.532Z,23.92
2023-02-13T15:38:00.568Z,23.15
2023-02-13T15:40:32.204Z,24.50
2023-02-13T15:43:03.237Z,24.20
2023-02-13T15:45:32.028Z,23.85
2023-02-13T15:48:01.726Z,25.17
2023-02-13T15:50:35.182Z,22.92
2023-02-13T15:53:06.934Z,23.30
2023-02-13T15:55:37.153Z,24.25
2023-02-13T15:58:06.040Z,23.45
2023-02-13T16:00:37.949Z,23.50
2023-02-13T16:03:14.481Z,22.98
2023-02-13T16:05:43.252Z,23.90
2023-02-13T16:08:35.955Z,24.45
2023-02-13T16:11:35.718Z,24.08
2023-02-13T16:14:15.970Z,24.48
2023-02-13T16:16:50.077Z,23.73
2023-02-13T16:19:33.961Z,23.77
2023-02-13T16:22:15.715Z,24.05
2023-02-13T16:24:50.574Z,23.00
2023-02-13T16:27:22.494Z,22.65
2023-02-13T16:29:57.636Z,22.85
2023-02-13T16:32:31.379Z,24.00
2023-02-13T16:35:25.334Z,24.15
2023-02-13T16:37:57.609Z,27.30
2023-02-13T16:40:41.947Z,24.80
2023-02-13T16:43:46.198Z,24.60
2023-02-13T16:46:35.829Z,25.17
2023-02-13T16:49:20.703Z,25.17
2023-02-13T16:52:13.045Z,24.90
2023-02-13T16:54:52.467Z,25.10
2023-02-13T16:57:28.068Z,24.60
2023-02-13T17:00:02.030Z,24.15
2023-02-13T17:02:31.380Z,24.30
2023-02-13T17:05:17.304Z,23.65
2023-02-13T17:07:50.257Z,24.00
2023-02-13T17:10:27.180Z,23.10
2023-02-13T17:12:59.629Z,23.58
2023-02-13T17:15:31.546Z,23.83
2023-02-13T17:18:00.492Z,23.15
2023-02-13T17:20:32.020Z,24.17
2023-02-13T17:23:04.546Z,22.33
2023-02-13T17:25:35.387Z,23.70
2023-02-13T17:28:13.165Z,22.95
2023-02-13T17:30:42.163Z,24.40
2023-02-13T17:33:15.175Z,24.90
2023-02-13T17:35:43.635Z,25.33
2023-02-13T17:38:13.433Z,25.63
2023-02-13T17:40:43.111Z,26.37
2023-02-13T17:43:13.384Z,25.70
2023-02-13T17:45:42.080Z,24.67
2023-02-13T17:48:10.662Z,24.52
2023-02-13T17:50:39.898Z,24.85
2023-02-13T17:53:12.705Z,25.23
2023-02-13T17:55:42.402Z,24.52
2023-02-13T17:58:13.863Z,25.20
2023-02-13T18:00:42.262Z,24.95
2023-02-13T18:03:12.880Z,25.75
2023-02-13T18:05:42.493Z,25.02
2023-02-13T18:08:11.229Z,26.90
2023-02-13T18:10:42.238Z,26.25
2023-02-13T18:13:10.582Z,26.15
2023-02-13T18:15:43.093Z,25.23
2023-02-13T18:18:13.289Z,25.70
2023-02-13T18:20:41.770Z,26.63
2023-02-13T18:23:10.347Z,24.95
2023-02-13T18:25:38.751Z,25.98
2023-02-13T18:28:08.438Z,25.98
2023-02-13T18:30:36.705Z,26.25
2023-02-13T18:33:05.226Z,26.38
2023-02-13T18:35:36.820Z,26.75
2023-02-13T18:38:05.213Z,27.10
2023-02-13T18:40:33.680Z,28.27
2023-02-13T18:43:02.100Z,27.00
2023-02-13T18:45:31.997Z,28.05
2023-02-13T18:48:01.523Z,27.02
2023-02-13T18:50:29.919Z,25.13
2023-02-13T18:52:58.280Z,26.10
2023-02-13T18:55:26.570Z,26.83
2023-02-13T18:57:56.366Z,27.80
2023-02-13T19:00:25.771Z,28.13
2023-02-13T19:02:55.669Z,29.40
2023-02-13T19:05:24.325Z,29.08
2023-02-13T19:07:52.949Z,27.95
2023-02-13T19:10:21.457Z,25.90
2023-02-13T19:12:50.122Z,22.63
2023-02-13T19:15:18.480Z,26.13
2023-02-13T19:17:46.930Z,23.45
2023-02-13T19:20:17.120Z,24.65
2023-02-13T19:22:45.570Z,24.73
2023-02-13T19:25:14.023Z,26.30
2023-02-13T19:27:42.386Z,24.98
2023-02-13T19:30:12.572Z,22.75
2023-02-13T19:32:41.500Z,26.98
2023-02-13T19:35:09.930Z,25.58
2023-02-13T19:37:44.051Z,25.42
2023-02-13T19:40:14.850Z,26.52
2023-02-13T19:42:43.368Z,28.85
2023-02-13T19:45:12.467Z,27.15
2023-02-13T19:47:40.836Z,25.45
2023-02-13T19:50:10.800Z,29.02
2023-02-13T19:52:40.617Z,25.15
2023-02-13T19:55:09.600Z,18.45
2023-02-13T19:57:38.140Z,18.17
2023-02-13T20:00:09.503Z,22.38
2023-02-13T20:02:40.904Z,24.08
2023-02-13T20:05:09.665Z,23.13
2023-02-13T20:07:37.904Z,28.38
2023-02-13T20:10:10.739Z,28.95
2023-02-13T20:12:39.496Z,28.55
2023-02-13T20:15:08.622Z,24.30
2023-02-13T20:38:01.602Z,25.80
2023-02-13T20:40:30.127Z,30.30
2023-02-13T20:42:58.464Z,24.25
2023-02-13T20:45:27.163Z,31.17
2023-02-13T20:47:55.532Z,30.38
2023-02-13T20:50:23.922Z,32.28
2023-02-13T20:52:52.384Z,30.45
2023-02-13T20:55:22.097Z,31.45
2023-02-13T20:57:50.416Z,32.40
2023-02-13T21:00:19.445Z,32.28
2023-02-13T21:02:47.812Z,31.52
2023-02-13T21:05:16.508Z,31.30
2023-02-13T21:07:45.004Z,31.25
2023-02-13T21:10:13.391Z,30.65
2023-02-13T21:12:43.434Z,31.67
2023-02-13T21:15:11.986Z,29.73
2023-02-13T21:17:40.254Z,29.95
2023-02-13T21:20:10.030Z,32.10
2023-02-13T21:22:38.538Z,31.90
2023-02-13T21:25:08.000Z,34.70
2023-02-13T21:27:36.320Z,32.60
2023-02-13T21:30:08.130Z,31.52
2023-02-13T21:32:39.369Z,31.27
2023-02-13T21:35:09.317Z,33.15
2023-02-13T21:37:37.686Z,33.75
2023-02-13T21:40:08.201Z,34.70
2023-02-13T21:42:36.594Z,37.45
2023-02-13T21:45:06.694Z,35.33
2023-02-13T21:47:35.385Z,32.10
2023-02-13T21:50:04.036Z,34.22
2023-02-13T21:52:32.404Z,33.65
2023-02-13T21:55:00.705Z,31.83
2023-02-13T21:57:29.006Z,32.95
2023-02-13T21:59:57.348Z,34.63
2023-02-13T22:02:28.121Z,33.50
2023-02-13T22:04:56.481Z,33.55
2023-02-13T22:07:24.812Z,33.13
2023-02-13T22:09:53.182Z,31.65
2023-02-13T22:12:21.541Z,32.42
2023-02-13T22:14:49.892Z,34.33
2023-02-13T22:17:18.314Z,33.63
2023-02-13T22:19:48.016Z,34.15
2023-02-13T22:22:16.395Z,32.88
2023-02-13T22:24:44.927Z,33.80
2023-02-13T22:27:13.249Z,31.90
2023-02-13T22:29:41.542Z,32.97
2023-02-13T22:32:10.033Z,33.53
2023-02-13T22:34:38.431Z,32.92
2023-02-13T22:37:09.419Z,33.05
2023-02-13T22:39:39.886Z,33.30
2023-02-13T22:42:08.338Z,33.70
2023-02-13T22:44:36.594Z,33.58
2023-02-13T22:47:07.216Z,33.53
2023-02-13T22:49:35.957Z,32.22
2023-02-13T22:52:04.423Z,33.17
2023-02-13T22:54:34.197Z,32.65
2023-02-13T22:57:02.500Z,32.07
2023-02-13T22:59:37.329Z,32.75
2023-02-13T23:02:07.174Z,33.17
2023-02-13T23:04:35.698Z,32.55
2023-02-13T23:07:04.012Z,33.65
2023-02-13T23:09:33.717Z,33.22
2023-02-13T23:12:19.494Z,34.17
2023-02-13T23:14:47.884Z,30.83
2023-02-13T23:17:33.684Z,31.77
2023-02-13T23:20:02.173Z,30.55
2023-02-13T23:22:30.728Z,28.77
2023-02-13T23:25:01.558Z,27.10
2023-02-13T23:27:30.225Z,30.48
2023-02-13T23:29:58.582Z,32.63
2023-02-13T23:32:27.109Z,33.03
2023-02-13T23:34:55.699Z,31.30
2023-02-13T23:37:24.079Z,34.20
2023-02-13T23:39:52.465Z,33.33
2023-02-13T23:42:22.206Z,33.70
2023-02-13T23:44:50.554Z,33.10
2023-02-13T23:47:18.930Z,31.60
2023-02-13T23:49:47.381Z,31.95
2023-02-13T23:52:15.692Z,31.55
2023-02-13T23:54:46.061Z,32.55
2023-02-13T23:57:15.076Z,33.15
2023-02-13T23:59:44.922Z,31.98
